createdAt,value
2019-01-29T00:01:06.898Z,0
2019-01-29T00:02:16.885Z,0
2019-01-29T00:03:27.158Z,0
2019-01-29T00:04:37.132Z,0
2019-01-29T00:05:47.105Z,0
2019-01-29T00:06:57.078Z,0
2019-01-29T00:08:07.058Z,0
2019-01-29T00:09:17.098Z,0
2019-01-29T00:10:27.069Z,0
2019-01-29T00:11:37.037Z,0
2019-01-29T00:12:47.006Z,0
2019-01-29T00:13:56.982Z,0
2019-01-29T00:15:07.053Z,0
2019-01-29T00:16:17.037Z,0
2019-01-29T00:17:27.005Z,0
2019-01-29T00:18:36.970Z,0
2019-01-29T00:19:46.937Z,0
2019-01-29T00:20:57.008Z,0
2019-01-29T00:22:06.974Z,0
2019-01-29T00:23:16.945Z,0
2019-01-29T00:24:26.921Z,0
2019-01-29T00:25:36.893Z,0
2019-01-29T00:26:46.968Z,0
2019-01-29T00:27:56.689Z,0
2019-01-29T00:29:06.656Z,0
2019-01-29T00:30:16.626Z,0
2019-01-29T00:31:26.594Z,0
2019-01-29T00:32:36.612Z,0
2019-01-29T00:33:46.583Z,0
2019-01-29T00:34:56.549Z,0
2019-01-29T00:36:06.521Z,0
2019-01-29T00:37:16.487Z,0
2019-01-29T00:38:26.557Z,0
2019-01-29T00:39:36.539Z,0
2019-01-29T00:40:46.509Z,0
2019-01-29T00:41:56.486Z,0
2019-01-29T00:43:06.466Z,0
2019-01-29T00:44:16.491Z,0
2019-01-29T00:45:26.459Z,0
2019-01-29T00:46:36.426Z,0
2019-01-29T00:47:46.395Z,0
2019-01-29T00:48:56.365Z,0
2019-01-29T00:50:06.386Z,0
2019-01-29T00:51:16.357Z,0
2019-01-29T00:52:26.337Z,0
2019-01-29T00:53:36.313Z,0
2019-01-29T00:54:46.281Z,0
2019-01-29T00:55:56.347Z,0
2019-01-29T00:57:06.318Z,0
2019-01-29T00:58:16.289Z,0
2019-01-29T00:59:26.269Z,0
2019-01-29T01:00:36.251Z,0
2019-01-29T01:01:46.325Z,0
2019-01-29T01:02:56.294Z,0
2019-01-29T01:04:06.272Z,0
2019-01-29T01:05:16.248Z,0
2019-01-29T01:06:26.219Z,0
2019-01-29T01:07:36.086Z,0
2019-01-29T01:08:47.823Z,0
2019-01-29T01:10:06.073Z,0
2019-01-29T01:11:16.054Z,0
2019-01-29T01:12:26.032Z,0
2019-01-29T01:13:36.167Z,0
2019-01-29T01:14:46.142Z,0
2019-01-29T01:15:56.116Z,0
2019-01-29T01:17:06.088Z,0
2019-01-29T01:18:16.073Z,0
2019-01-29T01:19:26.103Z,0
2019-01-29T01:20:36.070Z,0
2019-01-29T01:21:46.043Z,0
2019-01-29T01:23:00.186Z,0
2019-01-29T01:24:10.158Z,0
2019-01-29T01:25:20.130Z,0
2019-01-29T01:26:30.118Z,0
2019-01-29T01:27:40.088Z,0
2019-01-29T01:28:50.060Z,0
2019-01-29T01:30:00.033Z,0
2019-01-29T01:31:10.059Z,0
2019-01-29T01:32:20.034Z,0
2019-01-29T01:33:30.004Z,0
2019-01-29T01:34:39.970Z,0
2019-01-29T01:35:49.941Z,0
2019-01-29T01:37:00.011Z,0
2019-01-29T01:38:09.981Z,0
2019-01-29T01:39:20.011Z,0
2019-01-29T01:40:29.987Z,0
2019-01-29T01:41:39.956Z,0
2019-01-29T01:42:50.025Z,0
2019-01-29T01:43:59.739Z,0
2019-01-29T01:45:09.786Z,0
2019-01-29T01:46:19.772Z,0
2019-01-29T01:47:29.756Z,0
2019-01-29T01:48:39.830Z,0
2019-01-29T01:49:49.805Z,0
2019-01-29T01:50:59.772Z,0
2019-01-29T01:52:09.736Z,0
2019-01-29T01:53:19.713Z,0
2019-01-29T01:54:29.782Z,0
2019-01-29T01:55:39.751Z,0
2019-01-29T01:56:49.717Z,0
2019-01-29T01:57:59.690Z,0
2019-01-29T01:59:09.662Z,0
2019-01-29T02:00:19.794Z,0
2019-01-29T02:01:29.764Z,0
2019-01-29T02:02:39.737Z,0
2019-01-29T02:03:49.704Z,0
2019-01-29T02:04:59.678Z,0
2019-01-29T02:06:09.695Z,0
2019-01-29T02:07:19.674Z,0
2019-01-29T02:08:29.656Z,0
2019-01-29T02:09:39.629Z,0
2019-01-29T02:10:49.346Z,0
2019-01-29T02:11:59.365Z,0
2019-01-29T02:13:09.333Z,0
2019-01-29T02:14:19.310Z,0
2019-01-29T02:15:29.294Z,0
2019-01-29T02:16:39.265Z,0
2019-01-29T02:17:49.243Z,0
2019-01-29T02:18:59.225Z,0
2019-01-29T02:20:09.200Z,0
2019-01-29T02:21:19.171Z,0
2019-01-29T02:22:29.138Z,0
2019-01-29T02:23:39.212Z,0
2019-01-29T02:24:49.181Z,0
2019-01-29T02:25:59.148Z,0
2019-01-29T02:27:09.116Z,0
2019-01-29T02:28:19.081Z,0
2019-01-29T02:29:29.149Z,0
2019-01-29T02:30:39.122Z,0
2019-01-29T02:31:49.089Z,0
2019-01-29T02:32:59.079Z,0
2019-01-29T02:34:09.052Z,0
2019-01-29T02:35:19.121Z,0
2019-01-29T02:36:29.106Z,0
2019-01-29T02:37:39.084Z,0
2019-01-29T02:38:49.064Z,0
2019-01-29T02:39:59.032Z,0
2019-01-29T02:41:09.115Z,0
2019-01-29T02:42:19.100Z,0
2019-01-29T02:43:29.091Z,0
2019-01-29T02:44:39.583Z,0
2019-01-29T02:45:49.551Z,0
2019-01-29T02:46:59.581Z,0
2019-01-29T02:48:09.554Z,0
2019-01-29T02:49:19.526Z,0
2019-01-29T02:50:29.519Z,0
2019-01-29T02:51:39.170Z,0
2019-01-29T02:52:49.196Z,0
2019-01-29T02:53:59.184Z,0
2019-01-29T02:55:09.163Z,0
2019-01-29T02:56:19.137Z,0
2019-01-29T02:57:29.127Z,0
2019-01-29T02:58:39.165Z,0
2019-01-29T02:59:49.136Z,0
2019-01-29T03:00:59.106Z,0
2019-01-29T03:02:09.101Z,0
2019-01-29T03:03:19.071Z,0
2019-01-29T03:04:29.159Z,0
2019-01-29T03:05:39.136Z,0
2019-01-29T03:06:48.853Z,0
2019-01-29T03:07:58.910Z,0
2019-01-29T03:09:08.885Z,0
2019-01-29T03:10:18.915Z,0
2019-01-29T03:11:28.889Z,0
2019-01-29T03:12:38.921Z,0
2019-01-29T03:13:48.893Z,0
2019-01-29T03:14:58.867Z,0
2019-01-29T03:16:08.945Z,0
2019-01-29T03:17:18.412Z,0
2019-01-29T03:18:28.421Z,0
2019-01-29T03:19:38.417Z,0
2019-01-29T03:20:48.397Z,0
2019-01-29T03:21:58.478Z,0
2019-01-29T03:23:08.484Z,0
2019-01-29T03:24:18.471Z,0
2019-01-29T03:25:28.446Z,0
2019-01-29T03:26:38.431Z,0
2019-01-29T03:27:48.256Z,0
2019-01-29T03:28:58.230Z,0
2019-01-29T03:30:08.213Z,0
2019-01-29T03:31:18.193Z,0
2019-01-29T03:32:28.194Z,0
2019-01-29T03:33:38.283Z,0
2019-01-29T03:34:48.262Z,0
2019-01-29T03:35:58.237Z,0
2019-01-29T03:37:08.221Z,0
2019-01-29T03:38:18.203Z,0
2019-01-29T03:39:28.274Z,0
2019-01-29T03:40:38.243Z,0
2019-01-29T03:41:47.966Z,0
2019-01-29T03:42:57.933Z,0
2019-01-29T03:44:07.900Z,0
2019-01-29T03:45:18.004Z,0
2019-01-29T03:46:28.028Z,0
2019-01-29T03:47:38.004Z,0
2019-01-29T03:48:47.977Z,0
2019-01-29T03:49:57.991Z,0
2019-01-29T03:51:08.058Z,0
2019-01-29T03:52:18.041Z,0
2019-01-29T03:53:37.459Z,0
2019-01-29T03:54:47.790Z,0
2019-01-29T03:55:57.764Z,0
2019-01-29T03:57:07.836Z,0
2019-01-29T03:58:17.815Z,0
2019-01-29T03:59:27.784Z,0
2019-01-29T04:00:37.758Z,0
2019-01-29T04:01:47.732Z,0
2019-01-29T04:02:57.703Z,0
2019-01-29T04:04:07.717Z,0
2019-01-29T04:05:17.704Z,0
2019-01-29T04:06:27.679Z,0
2019-01-29T04:07:37.647Z,0
2019-01-29T04:08:47.764Z,0
2019-01-29T04:09:57.737Z,0
2019-01-29T04:11:07.709Z,0
2019-01-29T04:12:17.697Z,0
2019-01-29T04:13:27.667Z,0
2019-01-29T04:14:37.685Z,0
2019-01-29T04:15:47.660Z,0
2019-01-29T04:16:57.637Z,0
2019-01-29T04:18:07.356Z,0
2019-01-29T04:19:17.101Z,0
2019-01-29T04:20:27.124Z,0
2019-01-29T04:21:37.108Z,0
2019-01-29T04:22:48.439Z,0
2019-01-29T04:23:58.412Z,0
2019-01-29T04:25:08.422Z,0
2019-01-29T04:26:18.492Z,0
2019-01-29T04:27:28.464Z,0
2019-01-29T04:28:38.439Z,0
2019-01-29T04:29:48.407Z,0
2019-01-29T04:30:58.380Z,0
2019-01-29T04:32:08.397Z,0
2019-01-29T04:33:18.366Z,0
2019-01-29T04:34:28.333Z,0
2019-01-29T04:35:38.306Z,0
2019-01-29T04:36:48.282Z,0
2019-01-29T04:37:58.307Z,0
2019-01-29T04:39:08.317Z,0
2019-01-29T04:40:18.042Z,0
2019-01-29T04:41:28.015Z,0
2019-01-29T04:42:38.005Z,0
2019-01-29T04:43:48.142Z,0
2019-01-29T04:44:58.175Z,0
2019-01-29T04:46:08.150Z,0
2019-01-29T04:47:18.119Z,0
2019-01-29T04:48:28.095Z,0
2019-01-29T04:49:38.143Z,0
2019-01-29T04:50:48.133Z,0
2019-01-29T04:51:58.114Z,0
2019-01-29T04:53:08.089Z,0
2019-01-29T04:54:18.074Z,0
2019-01-29T04:55:28.117Z,0
2019-01-29T04:56:38.090Z,0
2019-01-29T04:57:47.805Z,0
2019-01-29T04:58:57.775Z,0
2019-01-29T05:00:07.762Z,0
2019-01-29T05:01:18.467Z,0
2019-01-29T05:02:28.492Z,0
2019-01-29T05:03:38.137Z,0
2019-01-29T05:04:48.107Z,0
2019-01-29T05:05:58.103Z,0
2019-01-29T05:07:08.175Z,0
2019-01-29T05:08:18.150Z,0
2019-01-29T05:09:28.117Z,0
2019-01-29T05:10:38.088Z,0
2019-01-29T05:11:48.063Z,0
2019-01-29T05:12:58.058Z,0
2019-01-29T05:14:08.047Z,0
2019-01-29T05:15:18.035Z,0
2019-01-29T05:16:28.026Z,0
2019-01-29T05:17:37.999Z,0
2019-01-29T05:18:48.071Z,0
2019-01-29T05:19:58.059Z,0
2019-01-29T05:21:08.041Z,0
2019-01-29T05:22:18.011Z,0
2019-01-29T05:23:27.974Z,0
2019-01-29T05:24:37.709Z,0
2019-01-29T05:25:47.688Z,0
2019-01-29T05:26:57.656Z,0
2019-01-29T05:28:07.687Z,0
2019-01-29T05:29:17.659Z,0
2019-01-29T05:30:29.975Z,0
2019-01-29T05:31:39.941Z,0
2019-01-29T05:32:49.932Z,0
2019-01-29T05:33:59.907Z,0
2019-01-29T05:35:09.889Z,0
2019-01-29T05:36:19.975Z,0
2019-01-29T05:37:29.958Z,0
2019-01-29T05:38:39.932Z,0
2019-01-29T05:39:49.903Z,0
2019-01-29T05:40:59.878Z,0
2019-01-29T05:42:09.915Z,0
2019-01-29T05:43:19.895Z,0
2019-01-29T05:44:29.874Z,0
2019-01-29T05:45:39.852Z,0
2019-01-29T05:46:49.863Z,0
2019-01-29T05:47:59.705Z,0
2019-01-29T05:49:09.700Z,0
2019-01-29T05:50:19.684Z,0
2019-01-29T05:51:29.665Z,0
2019-01-29T05:52:39.659Z,0
2019-01-29T05:53:49.729Z,0
2019-01-29T05:54:59.707Z,0
2019-01-29T05:56:09.691Z,0
2019-01-29T05:57:19.658Z,0
2019-01-29T05:58:29.622Z,0
2019-01-29T05:59:39.690Z,0
2019-01-29T06:00:49.678Z,0
2019-01-29T06:01:59.661Z,0
2019-01-29T06:03:09.698Z,0
2019-01-29T06:04:19.669Z,0
2019-01-29T06:05:29.651Z,0
2019-01-29T06:06:39.620Z,0
2019-01-29T06:07:49.592Z,0
2019-01-29T06:08:59.563Z,0
2019-01-29T06:10:09.534Z,0
2019-01-29T06:11:19.550Z,0
2019-01-29T06:12:29.526Z,0
2019-01-29T06:13:39.500Z,0
2019-01-29T06:14:49.485Z,0
2019-01-29T06:15:59.457Z,0
2019-01-29T06:17:09.526Z,0
2019-01-29T06:18:19.497Z,0
2019-01-29T06:19:29.461Z,0
2019-01-29T06:20:39.190Z,0
2019-01-29T06:21:49.174Z,0
2019-01-29T06:22:59.261Z,0
2019-01-29T06:24:09.248Z,0
2019-01-29T06:25:19.346Z,0
2019-01-29T06:26:29.332Z,0
2019-01-29T06:27:39.314Z,0
2019-01-29T06:28:49.330Z,0
2019-01-29T06:29:59.302Z,0
2019-01-29T06:31:09.336Z,0
2019-01-29T06:32:19.355Z,0
2019-01-29T06:33:29.326Z,0
2019-01-29T06:34:39.400Z,0
2019-01-29T06:35:49.374Z,0
2019-01-29T06:37:00.429Z,0
2019-01-29T06:38:10.409Z,0
2019-01-29T06:39:20.379Z,0
2019-01-29T06:40:30.460Z,0
2019-01-29T06:41:40.438Z,0
2019-01-29T06:42:51.173Z,0
2019-01-29T06:44:01.323Z,0
2019-01-29T06:45:11.287Z,0
2019-01-29T06:46:21.306Z,0
2019-01-29T06:47:31.272Z,0
2019-01-29T06:48:41.238Z,0
2019-01-29T06:49:51.205Z,0
2019-01-29T06:51:00.921Z,0
2019-01-29T06:52:10.988Z,0
2019-01-29T06:53:20.956Z,0
2019-01-29T06:54:41.066Z,0
2019-01-29T06:55:51.034Z,0
2019-01-29T06:57:01.005Z,0
2019-01-29T06:58:10.696Z,0
2019-01-29T06:59:20.669Z,0
2019-01-29T07:00:30.675Z,0
2019-01-29T07:01:40.658Z,0
2019-01-29T07:02:50.641Z,0
2019-01-29T07:04:00.661Z,0
2019-01-29T07:05:10.399Z,0
2019-01-29T07:06:20.375Z,0
2019-01-29T07:07:30.345Z,0
2019-01-29T07:08:40.323Z,0
2019-01-29T07:09:50.352Z,0
2019-01-29T07:11:00.323Z,0
2019-01-29T07:12:10.329Z,0
2019-01-29T07:13:20.317Z,0
2019-01-29T07:14:30.320Z,0
2019-01-29T07:15:40.349Z,0
2019-01-29T07:16:50.327Z,0
2019-01-29T07:18:00.317Z,0
2019-01-29T07:19:10.317Z,0
2019-01-29T07:20:20.283Z,0
2019-01-29T07:21:30.407Z,0
2019-01-29T07:22:40.373Z,0
2019-01-29T07:23:50.346Z,0
2019-01-29T07:25:00.357Z,0
2019-01-29T07:26:10.125Z,0
2019-01-29T07:27:20.145Z,5
2019-01-29T07:28:30.117Z,5
2019-01-29T07:29:40.086Z,5
2019-01-29T07:30:50.052Z,5
2019-01-29T07:31:59.774Z,5
2019-01-29T07:33:09.791Z,5
2019-01-29T07:34:19.762Z,5
2019-01-29T07:35:29.738Z,10
2019-01-29T07:36:39.714Z,10
2019-01-29T07:37:49.753Z,10
2019-01-29T07:38:59.770Z,10
2019-01-29T07:40:09.916Z,10
2019-01-29T07:41:19.904Z,15
2019-01-29T07:42:29.873Z,15
2019-01-29T07:43:39.842Z,15
2019-01-29T07:44:49.963Z,15
2019-01-29T07:45:59.941Z,20
2019-01-29T07:47:09.918Z,20
2019-01-29T07:48:19.886Z,20
2019-01-29T07:49:29.865Z,20
2019-01-29T07:50:39.984Z,25
2019-01-29T07:51:49.628Z,25
2019-01-29T07:52:59.591Z,25
2019-01-29T07:54:09.558Z,25
2019-01-29T07:55:19.548Z,30
2019-01-29T07:56:29.566Z,30
2019-01-29T07:57:39.345Z,30
2019-01-29T07:58:49.424Z,30
2019-01-29T07:59:59.392Z,35
2019-01-29T08:01:09.363Z,35
2019-01-29T08:02:19.233Z,35
2019-01-29T08:03:29.223Z,40
2019-01-29T08:04:39.190Z,40
2019-01-29T08:05:50.304Z,40
2019-01-29T08:07:00.269Z,45
2019-01-29T08:08:10.343Z,45
2019-01-29T08:09:20.312Z,45
2019-01-29T08:10:31.664Z,50
2019-01-29T08:11:41.632Z,50
2019-01-29T08:12:51.606Z,50
2019-01-29T08:14:01.674Z,55
2019-01-29T08:15:11.643Z,55
2019-01-29T08:16:22.791Z,55
2019-01-29T08:17:32.756Z,55
2019-01-29T08:18:42.733Z,60
2019-01-29T08:19:52.802Z,60
2019-01-29T08:21:02.772Z,65
2019-01-29T08:22:12.740Z,65
2019-01-29T08:23:22.761Z,70
2019-01-29T08:24:32.731Z,75
2019-01-29T08:25:50.267Z,75
2019-01-29T08:27:00.242Z,75
2019-01-29T08:28:10.215Z,80
2019-01-29T08:29:20.183Z,80
2019-01-29T08:30:30.152Z,85
2019-01-29T08:31:40.219Z,85
2019-01-29T08:32:50.198Z,90
2019-01-29T08:34:00.171Z,90
2019-01-29T08:35:10.147Z,95
2019-01-29T08:36:20.116Z,95
2019-01-29T08:37:30.185Z,100
2019-01-29T08:38:40.156Z,100
2019-01-29T08:39:50.178Z,105
2019-01-29T08:41:00.146Z,105
2019-01-29T08:42:09.874Z,105
2019-01-29T08:43:19.992Z,105
2019-01-29T08:44:29.967Z,110
2019-01-29T08:45:39.940Z,110
2019-01-29T08:46:49.910Z,110
2019-01-29T08:47:59.883Z,110
2019-01-29T08:49:09.909Z,110
2019-01-29T08:50:19.908Z,105
2019-01-29T08:51:29.885Z,105
2019-01-29T08:52:39.854Z,105
2019-01-29T08:53:49.824Z,115
2019-01-29T08:54:59.851Z,115
2019-01-29T08:56:09.887Z,120
2019-01-29T08:57:19.855Z,125
2019-01-29T08:58:36.293Z,110
2019-01-29T08:59:46.264Z,115
2019-01-29T09:00:56.235Z,130
2019-01-29T09:02:08.006Z,130
2019-01-29T09:03:18.167Z,130
2019-01-29T09:04:28.154Z,125
2019-01-29T09:05:38.125Z,125
2019-01-29T09:06:47.891Z,140
2019-01-29T09:07:57.861Z,135
2019-01-29T09:09:07.832Z,135
2019-01-29T09:10:17.799Z,140
2019-01-29T09:11:27.775Z,150
2019-01-29T09:12:37.795Z,145
2019-01-29T09:13:47.826Z,135
2019-01-29T09:14:57.797Z,135
2019-01-29T09:16:07.839Z,140
2019-01-29T09:17:17.821Z,145
2019-01-29T09:18:27.840Z,135
2019-01-29T09:19:37.808Z,140
2019-01-29T09:20:47.781Z,140
2019-01-29T09:21:57.754Z,145
2019-01-29T09:23:07.722Z,150
2019-01-29T09:24:17.798Z,155
2019-01-29T09:25:29.998Z,155
2019-01-29T09:26:39.969Z,160
2019-01-29T09:27:49.938Z,165
2019-01-29T09:28:59.910Z,160
2019-01-29T09:30:09.929Z,165
2019-01-29T09:31:19.913Z,170
2019-01-29T09:32:29.938Z,170
2019-01-29T09:33:39.907Z,170
2019-01-29T09:34:49.881Z,170
2019-01-29T09:35:59.960Z,170
2019-01-29T09:37:09.933Z,160
2019-01-29T09:38:19.909Z,155
2019-01-29T09:39:29.878Z,160
2019-01-29T09:40:39.850Z,165
2019-01-29T09:41:49.973Z,170
2019-01-29T09:42:59.946Z,175
2019-01-29T09:44:09.915Z,170
2019-01-29T09:45:19.960Z,170
2019-01-29T09:46:29.937Z,170
2019-01-29T09:47:40.107Z,170
2019-01-29T09:48:50.077Z,170
2019-01-29T09:50:00.207Z,170
2019-01-29T09:51:09.987Z,175
2019-01-29T09:52:19.956Z,180
2019-01-29T09:53:30.077Z,185
2019-01-29T09:54:40.049Z,195
2019-01-29T09:55:50.028Z,205
2019-01-29T09:57:00.001Z,210
2019-01-29T09:58:09.983Z,210
2019-01-29T09:59:19.703Z,210
2019-01-29T10:00:31.009Z,230
2019-01-29T10:01:40.980Z,235
2019-01-29T10:02:50.960Z,230
2019-01-29T10:04:00.953Z,210
2019-01-29T10:05:11.024Z,210
2019-01-29T10:06:20.995Z,210
2019-01-29T10:07:30.965Z,210
2019-01-29T10:08:40.954Z,205
2019-01-29T10:09:50.927Z,195
2019-01-29T10:11:00.896Z,205
2019-01-29T10:12:10.612Z,205
2019-01-29T10:13:20.652Z,205
2019-01-29T10:14:30.624Z,205
2019-01-29T10:15:40.591Z,205
2019-01-29T10:16:50.838Z,210
2019-01-29T10:18:00.830Z,215
2019-01-29T10:19:10.804Z,215
2019-01-29T10:20:20.790Z,215
2019-01-29T10:21:30.757Z,220
2019-01-29T10:22:40.774Z,220
2019-01-29T10:23:50.741Z,220
2019-01-29T10:25:00.732Z,220
2019-01-29T10:26:10.711Z,220
2019-01-29T10:27:20.680Z,220
2019-01-29T10:28:30.755Z,225
2019-01-29T10:29:40.742Z,225
2019-01-29T10:30:50.720Z,225
2019-01-29T10:32:00.699Z,225
2019-01-29T10:33:10.676Z,225
2019-01-29T10:34:20.813Z,225
2019-01-29T10:35:30.790Z,225
2019-01-29T10:36:41.355Z,230
2019-01-29T10:37:51.347Z,230
2019-01-29T10:39:01.377Z,230
2019-01-29T10:40:11.353Z,230
2019-01-29T10:41:21.333Z,230
2019-01-29T10:42:31.306Z,230
2019-01-29T10:43:41.284Z,230
2019-01-29T10:44:51.267Z,230
2019-01-29T10:46:01.339Z,230
2019-01-29T10:47:11.493Z,230
2019-01-29T10:48:21.537Z,235
2019-01-29T10:49:31.516Z,235
2019-01-29T10:50:41.492Z,240
2019-01-29T10:51:51.473Z,235
2019-01-29T10:53:01.468Z,235
2019-01-29T10:54:11.446Z,240
2019-01-29T10:55:21.430Z,335
2019-01-29T10:56:31.406Z,645
2019-01-29T10:57:41.394Z,735
2019-01-29T10:58:51.370Z,670
2019-01-29T11:00:01.361Z,590
2019-01-29T11:01:11.356Z,530
2019-01-29T11:02:21.335Z,485
2019-01-29T11:03:31.305Z,450
2019-01-29T11:04:41.280Z,425
2019-01-29T11:05:51.252Z,415
2019-01-29T11:07:01.229Z,410
2019-01-29T11:08:11.205Z,410
2019-01-29T11:09:30.121Z,405
2019-01-29T11:10:39.843Z,405
2019-01-29T11:11:49.836Z,410
2019-01-29T11:12:59.810Z,415
2019-01-29T11:14:09.791Z,420
2019-01-29T11:15:19.769Z,420
2019-01-29T11:16:29.814Z,425
2019-01-29T11:17:39.796Z,425
2019-01-29T11:18:49.782Z,430
2019-01-29T11:19:59.763Z,430
2019-01-29T11:21:09.845Z,435
2019-01-29T11:22:19.829Z,440
2019-01-29T11:23:29.805Z,445
2019-01-29T11:24:39.792Z,445
2019-01-29T11:25:57.966Z,450
2019-01-29T11:27:07.707Z,450
2019-01-29T11:28:17.700Z,450
2019-01-29T11:29:27.687Z,455
2019-01-29T11:30:37.684Z,465
2019-01-29T11:31:47.691Z,465
2019-01-29T11:32:57.690Z,465
2019-01-29T11:34:07.675Z,465
2019-01-29T11:35:17.678Z,465
2019-01-29T11:36:27.658Z,470
2019-01-29T11:37:37.636Z,475
2019-01-29T11:38:47.767Z,480
2019-01-29T11:39:57.752Z,480
2019-01-29T11:41:07.732Z,480
2019-01-29T11:42:17.718Z,485
2019-01-29T11:43:27.193Z,480
2019-01-29T11:44:37.180Z,485
2019-01-29T11:45:47.161Z,490
2019-01-29T11:46:57.143Z,495
2019-01-29T11:48:07.130Z,500
2019-01-29T11:49:17.118Z,500
2019-01-29T11:50:27.226Z,515
2019-01-29T11:51:37.224Z,520
2019-01-29T11:52:47.210Z,520
2019-01-29T11:53:57.194Z,515
2019-01-29T11:55:07.178Z,520
2019-01-29T11:56:17.263Z,520
2019-01-29T11:57:27.244Z,520
2019-01-29T11:58:37.233Z,520
2019-01-29T11:59:47.244Z,525
2019-01-29T12:00:57.235Z,530
2019-01-29T12:02:07.269Z,530
2019-01-29T12:03:17.304Z,520
2019-01-29T12:04:29.039Z,520
2019-01-29T12:05:39.024Z,520
2019-01-29T12:06:49.009Z,520
2019-01-29T12:07:59.045Z,520
2019-01-29T12:09:09.030Z,515
2019-01-29T12:10:19.034Z,520
2019-01-29T12:11:29.022Z,515
2019-01-29T12:12:39.008Z,515
2019-01-29T12:13:49.042Z,515
2019-01-29T12:14:59.031Z,515
2019-01-29T12:16:09.016Z,525
2019-01-29T12:17:19.001Z,535
2019-01-29T12:18:28.986Z,535
2019-01-29T12:19:39.071Z,535
2019-01-29T12:20:49.052Z,535
2019-01-29T12:21:59.040Z,535
2019-01-29T12:23:09.027Z,540
2019-01-29T12:24:20.628Z,545
2019-01-29T12:25:30.618Z,550
2019-01-29T12:26:40.601Z,555
2019-01-29T12:27:50.606Z,560
2019-01-29T12:29:00.588Z,565
2019-01-29T12:30:10.571Z,580
2019-01-29T12:31:20.654Z,600
2019-01-29T12:32:30.638Z,595
2019-01-29T12:33:40.628Z,595
2019-01-29T12:34:50.609Z,595
2019-01-29T12:36:00.596Z,600
2019-01-29T12:37:10.683Z,610
2019-01-29T12:38:20.741Z,610
2019-01-29T12:39:30.723Z,615
2019-01-29T12:40:41.974Z,600
2019-01-29T12:41:52.011Z,610
2019-01-29T12:43:01.999Z,615
2019-01-29T12:44:11.989Z,620
2019-01-29T12:45:21.974Z,630
2019-01-29T12:46:31.959Z,640
2019-01-29T12:47:41.945Z,670
2019-01-29T12:48:52.026Z,710
2019-01-29T12:50:02.014Z,725
2019-01-29T12:51:11.754Z,725
2019-01-29T12:52:21.737Z,745
2019-01-29T12:53:31.719Z,770
2019-01-29T12:54:41.926Z,800
2019-01-29T12:55:51.909Z,830
2019-01-29T12:57:01.890Z,955
2019-01-29T12:58:11.876Z,1215
2019-01-29T12:59:21.861Z,1185
2019-01-29T13:00:31.945Z,1040
2019-01-29T13:01:41.938Z,985
2019-01-29T13:02:51.953Z,950
2019-01-29T13:04:01.939Z,935
2019-01-29T13:05:11.926Z,935
2019-01-29T13:06:22.063Z,910
2019-01-29T13:07:32.063Z,880
2019-01-29T13:08:42.046Z,880
2019-01-29T13:09:52.036Z,860
2019-01-29T13:11:01.770Z,885
2019-01-29T13:12:11.549Z,880
2019-01-29T13:13:21.531Z,880
2019-01-29T13:14:31.515Z,855
2019-01-29T13:15:41.511Z,845
2019-01-29T13:16:51.498Z,845
2019-01-29T13:18:01.586Z,855
2019-01-29T13:19:11.584Z,860
2019-01-29T13:20:21.570Z,890
2019-01-29T13:21:31.561Z,885
2019-01-29T13:22:41.543Z,880
2019-01-29T13:23:51.627Z,885
2019-01-29T13:25:01.613Z,870
2019-01-29T13:26:11.615Z,815
2019-01-29T13:27:21.602Z,570
2019-01-29T13:28:31.594Z,555
2019-01-29T13:29:41.730Z,745
2019-01-29T13:30:51.713Z,775
2019-01-29T13:32:01.699Z,760
2019-01-29T13:33:11.691Z,695
2019-01-29T13:34:21.426Z,635
2019-01-29T13:35:31.519Z,635
2019-01-29T13:36:41.506Z,575
2019-01-29T13:37:51.495Z,530
2019-01-29T13:39:01.483Z,560
2019-01-29T13:40:11.911Z,530
2019-01-29T13:41:21.944Z,505
2019-01-29T13:42:31.930Z,495
2019-01-29T13:43:41.915Z,570
2019-01-29T13:44:51.926Z,565
2019-01-29T13:46:01.919Z,455
2019-01-29T13:47:11.907Z,405
2019-01-29T13:48:21.906Z,430
2019-01-29T13:49:31.904Z,350
2019-01-29T13:50:41.637Z,330
2019-01-29T13:51:51.624Z,325
2019-01-29T13:53:01.715Z,405
2019-01-29T13:54:11.711Z,360
2019-01-29T13:55:21.703Z,275
2019-01-29T13:56:38.685Z,225
2019-01-29T13:57:48.969Z,210
2019-01-29T13:58:59.004Z,205
2019-01-29T14:00:08.989Z,185
2019-01-29T14:01:18.982Z,170
2019-01-29T14:02:28.969Z,165
2019-01-29T14:03:38.952Z,165
2019-01-29T14:04:48.982Z,160
2019-01-29T14:05:58.999Z,150
2019-01-29T14:07:08.985Z,145
2019-01-29T14:08:18.965Z,140
2019-01-29T14:09:28.947Z,130
2019-01-29T14:10:38.978Z,120
2019-01-29T14:11:48.985Z,115
2019-01-29T14:12:58.961Z,115
2019-01-29T14:14:08.942Z,110
2019-01-29T14:15:18.924Z,110
2019-01-29T14:16:29.007Z,110
2019-01-29T14:17:38.990Z,105
2019-01-29T14:18:48.970Z,100
2019-01-29T14:19:58.947Z,95
2019-01-29T14:21:08.928Z,90
2019-01-29T14:22:18.952Z,95
2019-01-29T14:23:28.927Z,90
2019-01-29T14:24:38.903Z,90
2019-01-29T14:25:48.914Z,80
2019-01-29T14:26:58.893Z,80
2019-01-29T14:28:08.927Z,85
2019-01-29T14:29:18.921Z,80
2019-01-29T14:30:28.942Z,80
2019-01-29T14:31:38.745Z,75
2019-01-29T14:32:48.730Z,75
2019-01-29T14:33:58.784Z,70
2019-01-29T14:35:08.801Z,75
2019-01-29T14:36:25.725Z,70
2019-01-29T14:37:35.712Z,65
2019-01-29T14:38:45.689Z,65
2019-01-29T14:39:55.718Z,55
2019-01-29T14:41:05.716Z,55
2019-01-29T14:42:15.760Z,50
2019-01-29T14:43:25.499Z,50
2019-01-29T14:44:35.482Z,45
2019-01-29T14:45:45.514Z,45
2019-01-29T14:46:55.488Z,45
2019-01-29T14:48:05.489Z,40
2019-01-29T14:49:15.503Z,40
2019-01-29T14:50:25.172Z,35
2019-01-29T14:51:35.047Z,35
2019-01-29T14:52:44.804Z,35
2019-01-29T14:53:54.776Z,35
2019-01-29T14:55:04.790Z,30
2019-01-29T14:56:14.812Z,30
2019-01-29T14:57:25.093Z,30
2019-01-29T14:58:35.091Z,30
2019-01-29T14:59:46.161Z,25
2019-01-29T15:00:56.134Z,25
2019-01-29T15:02:05.928Z,25
2019-01-29T15:03:16.303Z,25
2019-01-29T15:04:26.281Z,20
2019-01-29T15:05:36.460Z,20
2019-01-29T15:06:46.481Z,20
2019-01-29T15:07:56.570Z,20
2019-01-29T15:09:06.825Z,20
2019-01-29T15:10:16.966Z,15
2019-01-29T15:11:27.009Z,15
2019-01-29T15:12:37.157Z,15
2019-01-29T15:13:47.253Z,15
2019-01-29T15:14:57.350Z,15
2019-01-29T15:16:07.338Z,10
2019-01-29T15:17:17.314Z,10
2019-01-29T15:18:27.288Z,10
2019-01-29T15:19:37.266Z,10
2019-01-29T15:20:47.290Z,10
2019-01-29T15:21:58.270Z,10
2019-01-29T15:23:08.240Z,5
2019-01-29T15:24:18.214Z,5
2019-01-29T15:25:28.189Z,5
2019-01-29T15:26:38.224Z,5
2019-01-29T15:27:48.204Z,5
2019-01-29T15:28:58.183Z,5
2019-01-29T15:30:08.163Z,5
2019-01-29T15:31:18.146Z,5
2019-01-29T15:32:28.174Z,0
2019-01-29T15:33:38.145Z,0
2019-01-29T15:34:48.116Z,0
2019-01-29T15:35:58.089Z,0
2019-01-29T15:37:08.131Z,0
2019-01-29T15:38:18.208Z,0
2019-01-29T15:39:28.178Z,0
2019-01-29T15:40:38.152Z,0
2019-01-29T15:41:48.161Z,0
2019-01-29T15:42:58.603Z,0
2019-01-29T15:44:08.676Z,0
2019-01-29T15:45:18.647Z,0
2019-01-29T15:46:28.619Z,0
2019-01-29T15:47:38.670Z,0
2019-01-29T15:48:48.641Z,0
2019-01-29T15:49:58.613Z,0
2019-01-29T15:51:08.591Z,0
2019-01-29T15:52:18.571Z,0
2019-01-29T15:53:28.216Z,0
2019-01-29T15:54:38.187Z,0
2019-01-29T15:55:48.311Z,0
2019-01-29T15:56:58.280Z,0
2019-01-29T15:58:08.253Z,0
2019-01-29T15:59:18.228Z,0
2019-01-29T16:00:28.273Z,0
2019-01-29T16:01:38.306Z,0
2019-01-29T16:02:48.276Z,0
2019-01-29T16:03:58.247Z,0
2019-01-29T16:05:08.220Z,0
2019-01-29T16:06:18.194Z,0
2019-01-29T16:07:28.219Z,0
2019-01-29T16:08:38.193Z,0
2019-01-29T16:09:48.163Z,0
2019-01-29T16:10:58.141Z,0
2019-01-29T16:12:08.110Z,0
2019-01-29T16:13:18.182Z,0
2019-01-29T16:14:28.169Z,0
2019-01-29T16:15:38.151Z,0
2019-01-29T16:16:48.128Z,0
2019-01-29T16:17:58.105Z,0
2019-01-29T16:19:08.188Z,0
2019-01-29T16:20:18.176Z,0
2019-01-29T16:21:28.148Z,0
2019-01-29T16:22:38.115Z,0
2019-01-29T16:23:50.287Z,0
2019-01-29T16:25:00.368Z,0
2019-01-29T16:26:10.339Z,0
2019-01-29T16:27:27.572Z,0
2019-01-29T16:28:37.587Z,0
2019-01-29T16:29:47.305Z,0
2019-01-29T16:30:57.329Z,0
2019-01-29T16:32:07.302Z,0
2019-01-29T16:33:17.275Z,0
2019-01-29T16:34:27.249Z,0
2019-01-29T16:35:37.219Z,0
2019-01-29T16:36:47.291Z,0
2019-01-29T16:37:57.263Z,0
2019-01-29T16:39:07.296Z,0
2019-01-29T16:40:17.270Z,0
2019-01-29T16:41:27.245Z,0
2019-01-29T16:42:37.218Z,0
2019-01-29T16:43:47.192Z,0
2019-01-29T16:44:57.162Z,0
2019-01-29T16:46:07.134Z,0
2019-01-29T16:47:17.113Z,0